createdAt,value
2023-02-16T00:01:24.500Z,83.00
2023-02-16T00:03:57.099Z,77.20
2023-02-16T00:06:29.704Z,75.00
2023-02-16T00:09:00.605Z,78.20
2023-02-16T00:11:52.662Z,82.10
2023-02-16T00:14:26.377Z,82.10
2023-02-16T00:16:58.203Z,71.70
2023-02-16T00:19:31.806Z,88.60
2023-02-16T00:22:03.834Z,81.30
2023-02-16T00:24:34.891Z,73.00
2023-02-16T00:27:11.571Z,80.80
2023-02-16T00:29:44.798Z,78.00
2023-02-16T00:32:16.902Z,78.70
2023-02-16T00:34:48.651Z,92.30
2023-02-16T00:37:19.673Z,82.70
2023-02-16T00:39:52.218Z,75.80
2023-02-16T00:42:29.183Z,82.60
2023-02-16T00:45:01.435Z,80.20
2023-02-16T00:47:35.625Z,81.20
2023-02-16T00:50:15.378Z,76.40
2023-02-16T00:52:47.507Z,94.10
2023-02-16T00:55:20.747Z,82.80
2023-02-16T00:57:56.188Z,88.20
2023-02-16T01:00:31.196Z,83.60
2023-02-16T01:03:06.779Z,86.30
2023-02-16T01:05:40.001Z,79.60
2023-02-16T01:08:31.555Z,84.60
2023-02-16T01:11:12.778Z,80.30
2023-02-16T01:13:48.536Z,79.50
2023-02-16T01:16:21.742Z,81.70
2023-02-16T01:18:54.841Z,88.30
2023-02-16T01:21:25.756Z,71.50
2023-02-16T01:23:56.913Z,90.90
2023-02-16T01:26:27.889Z,83.90
2023-02-16T01:28:58.788Z,86.00
2023-02-16T01:31:29.794Z,96.50
2023-02-16T01:34:00.892Z,82.10
2023-02-16T01:36:35.038Z,91.20
2023-02-16T01:39:07.307Z,90.90
2023-02-16T01:42:03.399Z,87.00
2023-02-16T01:44:40.055Z,83.80
2023-02-16T01:47:31.129Z,75.70
2023-02-16T01:50:03.420Z,83.70
2023-02-16T01:52:39.521Z,84.30
2023-02-16T01:55:18.876Z,91.00
2023-02-16T01:57:55.101Z,85.80
2023-02-16T02:00:50.041Z,85.60
2023-02-16T02:03:41.240Z,84.70
2023-02-16T02:06:14.245Z,91.90
2023-02-16T02:08:53.878Z,78.30
2023-02-16T02:11:28.999Z,84.00
2023-02-16T02:14:04.286Z,84.10
2023-02-16T02:16:35.449Z,91.60
2023-02-16T02:19:06.577Z,89.00
2023-02-16T02:22:21.240Z,91.80
2023-02-16T02:25:20.798Z,95.70
2023-02-16T02:27:58.916Z,92.00
2023-02-16T02:30:42.986Z,87.40
2023-02-16T02:33:34.102Z,92.60
2023-02-16T02:36:20.093Z,87.30
2023-02-16T02:39:03.937Z,97.50
2023-02-16T02:42:03.732Z,104.20
2023-02-16T02:44:43.590Z,82.00
2023-02-16T02:47:15.313Z,91.70
2023-02-16T02:49:54.311Z,100.30
2023-02-16T02:52:29.570Z,79.70
2023-02-16T02:58:07.724Z,81.30
2023-02-16T03:00:46.820Z,87.50
2023-02-16T03:03:27.796Z,87.20
2023-02-16T03:06:04.745Z,86.90
2023-02-16T03:08:40.658Z,92.00
2023-02-16T03:11:34.961Z,84.50
2023-02-16T03:14:10.854Z,88.50
2023-02-16T03:16:46.809Z,86.50
2023-02-16T03:19:38.697Z,87.10
2023-02-16T03:22:28.303Z,91.40
2023-02-16T03:25:17.957Z,88.30
2023-02-16T03:28:06.712Z,113.30
2023-02-16T03:30:38.476Z,106.10
2023-02-16T03:33:09.615Z,94.30
2023-02-16T03:35:41.160Z,89.90
2023-02-16T03:38:12.131Z,92.70
2023-02-16T03:40:45.425Z,94.20
2023-02-16T03:43:16.578Z,86.90
2023-02-16T03:45:48.033Z,95.70
2023-02-16T03:48:20.312Z,116.40
2023-02-16T03:50:52.169Z,93.00
2023-02-16T03:53:23.380Z,95.30
2023-02-16T03:55:55.041Z,92.10
2023-02-16T03:58:27.635Z,98.20
2023-02-16T04:00:59.365Z,95.50
2023-02-16T04:03:30.438Z,91.70
2023-02-16T04:06:02.220Z,96.30
2023-02-16T04:08:33.139Z,92.00
2023-02-16T04:11:24.147Z,93.40
2023-02-16T04:13:55.351Z,92.50
2023-02-16T04:16:26.398Z,93.40
2023-02-16T04:18:57.321Z,92.80
2023-02-16T04:21:28.914Z,95.30
2023-02-16T04:23:59.969Z,99.60
2023-02-16T04:26:31.856Z,96.50
2023-02-16T04:29:02.759Z,94.80
2023-02-16T04:31:33.799Z,92.10
2023-02-16T04:34:04.822Z,92.10
2023-02-16T04:36:35.918Z,94.60
2023-02-16T04:39:06.967Z,95.60
2023-02-16T04:41:37.912Z,92.50
2023-02-16T04:44:09.386Z,93.40
2023-02-16T04:46:40.274Z,101.60
2023-02-16T04:49:11.301Z,93.80
2023-02-16T04:51:42.358Z,92.60
2023-02-16T04:54:14.708Z,82.80
2023-02-16T04:56:48.433Z,92.90
2023-02-16T04:59:19.402Z,102.70
2023-02-16T05:01:50.783Z,92.90
2023-02-16T05:04:21.977Z,97.00
2023-02-16T05:06:53.413Z,96.30
2023-02-16T05:09:24.542Z,94.50
2023-02-16T05:12:13.530Z,94.50
2023-02-16T05:14:45.202Z,94.20
2023-02-16T05:17:19.645Z,96.00
2023-02-16T05:19:52.584Z,95.00
2023-02-16T05:22:28.802Z,85.10
2023-02-16T05:24:59.920Z,94.90
2023-02-16T05:27:31.946Z,102.60
2023-02-16T05:30:25.358Z,91.60
2023-02-16T05:32:58.485Z,90.20
2023-02-16T05:35:29.687Z,85.70
2023-02-16T05:38:02.842Z,104.20
2023-02-16T05:40:33.815Z,93.40
2023-02-16T05:43:04.749Z,98.10
2023-02-16T05:45:35.727Z,94.30
2023-02-16T05:48:06.818Z,112.00
2023-02-16T05:50:37.801Z,94.40
2023-02-16T05:53:09.831Z,99.70
2023-02-16T05:55:40.884Z,101.30
2023-02-16T05:58:11.881Z,102.60
2023-02-16T06:00:43.928Z,89.60
2023-02-16T06:03:14.903Z,97.10
2023-02-16T06:05:45.855Z,82.80
2023-02-16T06:08:16.807Z,97.30
2023-02-16T06:10:47.913Z,86.80
2023-02-16T06:13:19.706Z,87.40
2023-02-16T06:15:54.404Z,93.00
2023-02-16T06:18:26.381Z,90.80
2023-02-16T06:20:59.535Z,88.60
2023-02-16T06:23:30.998Z,89.20
2023-02-16T06:26:02.674Z,105.00
2023-02-16T06:28:33.634Z,97.80
2023-02-16T06:31:04.890Z,96.80
2023-02-16T06:33:36.139Z,92.70
2023-02-16T06:36:08.695Z,87.60
2023-02-16T06:38:39.746Z,93.50
2023-02-16T06:41:10.732Z,82.50
2023-02-16T06:43:41.691Z,95.40
2023-02-16T06:46:12.692Z,92.10
2023-02-16T06:48:43.618Z,83.00
2023-02-16T06:51:17.794Z,94.20
2023-02-16T06:53:49.408Z,98.40
2023-02-16T06:56:20.383Z,89.00
2023-02-16T06:58:51.638Z,97.70
2023-02-16T07:01:26.296Z,86.80
2023-02-16T07:03:58.785Z,90.40
2023-02-16T07:06:31.029Z,100.90
2023-02-16T07:09:02.105Z,88.60
2023-02-16T07:11:33.032Z,96.40
2023-02-16T07:14:04.092Z,85.80
2023-02-16T07:16:35.416Z,83.80
2023-02-16T07:19:07.120Z,89.00
2023-02-16T07:21:38.300Z,89.70
2023-02-16T07:24:09.960Z,91.20
2023-02-16T07:26:40.969Z,87.20
2023-02-16T07:29:12.156Z,84.90
2023-02-16T07:31:43.370Z,84.10
2023-02-16T07:34:14.449Z,93.30
2023-02-16T07:36:45.786Z,92.50
2023-02-16T07:39:16.702Z,91.20
2023-02-16T07:41:47.752Z,84.10
2023-02-16T07:44:22.249Z,90.30
2023-02-16T07:46:53.228Z,76.20
2023-02-16T07:49:24.358Z,85.20
2023-02-16T07:51:55.450Z,84.80
2023-02-16T07:54:26.380Z,84.60
2023-02-16T07:56:57.300Z,85.20
2023-02-16T07:59:28.246Z,83.10
2023-02-16T08:01:59.208Z,87.00
2023-02-16T08:04:30.545Z,83.40
2023-02-16T08:07:01.656Z,93.50
2023-02-16T08:09:32.781Z,81.40
2023-02-16T08:12:03.738Z,83.50
2023-02-16T08:14:34.693Z,80.20
2023-02-16T08:17:06.353Z,79.10
2023-02-16T08:19:38.276Z,85.30
2023-02-16T08:22:12.382Z,82.20
2023-02-16T08:24:43.639Z,79.80
2023-02-16T08:27:14.756Z,75.90
2023-02-16T08:29:45.795Z,80.30
2023-02-16T08:32:17.091Z,75.30
2023-02-16T08:34:48.767Z,78.90
2023-02-16T08:37:19.899Z,77.70
2023-02-16T08:39:52.165Z,72.80
2023-02-16T08:42:23.239Z,74.60
2023-02-16T08:44:54.735Z,74.70
2023-02-16T08:47:26.032Z,79.40
2023-02-16T08:49:57.253Z,73.90
2023-02-16T08:52:29.152Z,76.10
2023-02-16T08:55:00.122Z,79.00
2023-02-16T08:57:34.294Z,72.20
2023-02-16T09:00:23.992Z,72.50
2023-02-16T09:02:55.269Z,74.40
2023-02-16T09:05:26.344Z,74.30
2023-02-16T09:07:57.758Z,76.30
2023-02-16T09:10:29.082Z,73.70
2023-02-16T09:13:00.269Z,71.00
2023-02-16T09:15:31.325Z,72.50
2023-02-16T09:18:02.993Z,71.70
2023-02-16T09:20:33.978Z,65.30
2023-02-16T09:23:04.965Z,73.50
2023-02-16T09:25:39.659Z,70.00
2023-02-16T09:28:11.617Z,74.60
2023-02-16T09:30:42.652Z,69.90
2023-02-16T09:33:15.148Z,66.80
2023-02-16T09:35:46.034Z,69.90
2023-02-16T09:38:18.019Z,74.40
2023-02-16T09:40:49.388Z,67.60
2023-02-16T09:43:33.335Z,67.40
2023-02-16T09:46:06.608Z,68.70
2023-02-16T09:48:42.811Z,71.40
2023-02-16T09:51:20.923Z,76.20
2023-02-16T09:54:00.656Z,73.80
2023-02-16T09:56:37.885Z,79.20
2023-02-16T09:59:14.977Z,69.40
2023-02-16T10:01:53.444Z,70.00
2023-02-16T10:04:43.858Z,77.80
2023-02-16T10:07:27.365Z,72.40
2023-02-16T10:10:00.976Z,72.00
2023-02-16T10:12:41.954Z,79.00
2023-02-16T10:15:20.642Z,69.80
2023-02-16T10:17:56.810Z,76.60
2023-02-16T10:20:33.413Z,76.00
2023-02-16T10:23:15.051Z,72.60
2023-02-16T10:25:53.956Z,74.20
2023-02-16T10:28:38.257Z,72.20
2023-02-16T10:31:19.666Z,67.90
2023-02-16T10:34:01.716Z,74.60
2023-02-16T10:36:48.050Z,67.90
2023-02-16T10:39:26.388Z,71.50
2023-02-16T10:42:03.709Z,64.80
2023-02-16T10:44:41.322Z,77.70
2023-02-16T10:47:36.818Z,70.10
2023-02-16T10:50:17.838Z,75.90
2023-02-16T10:52:49.566Z,69.00
2023-02-16T10:55:21.365Z,69.90
2023-02-16T10:57:57.431Z,73.40
2023-02-16T11:00:39.312Z,71.50
2023-02-16T11:03:14.113Z,74.30
2023-02-16T11:05:45.121Z,75.70
2023-02-16T11:08:16.023Z,77.80
2023-02-16T11:10:51.902Z,68.30
2023-02-16T11:13:34.049Z,73.20
2023-02-16T11:16:12.158Z,73.40
2023-02-16T11:18:47.070Z,73.60
2023-02-16T11:21:18.650Z,73.50
2023-02-16T11:24:02.229Z,74.30
2023-02-16T11:26:33.157Z,69.80
2023-02-16T11:29:19.113Z,76.50
2023-02-16T11:31:50.392Z,73.60
2023-02-16T11:34:30.919Z,68.10
2023-02-16T11:37:15.634Z,63.60
2023-02-16T11:39:54.003Z,69.40
2023-02-16T11:42:32.468Z,69.60
2023-02-16T11:45:06.160Z,69.10
2023-02-16T11:47:41.660Z,69.70
2023-02-16T11:50:22.924Z,68.70
2023-02-16T11:52:56.435Z,67.10
2023-02-16T11:55:33.462Z,72.10
2023-02-16T11:58:20.230Z,60.50
2023-02-16T12:01:05.212Z,63.00
2023-02-16T12:04:01.606Z,65.20
2023-02-16T12:06:44.315Z,64.80
2023-02-16T12:09:24.846Z,66.40
2023-02-16T12:12:11.094Z,62.70
2023-02-16T12:14:54.051Z,71.80
2023-02-16T12:17:45.916Z,63.90
2023-02-16T12:20:33.001Z,62.50
2023-02-16T12:23:14.109Z,58.70
2023-02-16T12:25:52.374Z,61.70
2023-02-16T12:28:32.496Z,61.50
2023-02-16T12:31:17.699Z,63.70
2023-02-16T12:33:58.101Z,58.20
2023-02-16T12:36:43.093Z,63.40
2023-02-16T12:39:23.021Z,60.90
2023-02-16T12:42:13.363Z,61.10
2023-02-16T12:44:48.820Z,63.20
2023-02-16T12:47:27.437Z,57.60
2023-02-16T12:50:03.529Z,56.70
2023-02-16T12:52:42.880Z,60.20
2023-02-16T12:55:23.133Z,65.30
2023-02-16T12:57:59.373Z,64.90
2023-02-16T13:00:40.817Z,63.30
2023-02-16T13:03:22.052Z,60.00
2023-02-16T13:06:04.871Z,72.10
2023-02-16T13:08:45.566Z,62.20
2023-02-16T13:11:23.428Z,59.60
2023-02-16T13:13:59.862Z,65.20
2023-02-16T13:16:39.878Z,59.20
2023-02-16T13:19:16.823Z,58.60
2023-02-16T13:22:16.953Z,61.00
2023-02-16T13:25:17.485Z,60.50
2023-02-16T13:27:58.068Z,59.80
2023-02-16T13:30:50.003Z,62.50
2023-02-16T13:33:51.604Z,55.60
2023-02-16T13:36:55.651Z,57.30
2023-02-16T13:40:05.842Z,58.10
2023-02-16T13:42:59.398Z,63.70
2023-02-16T13:45:34.456Z,62.00
2023-02-16T13:48:14.312Z,64.70
2023-02-16T13:50:48.678Z,68.20
2023-02-16T13:53:24.802Z,67.60
2023-02-16T13:56:17.772Z,69.70
2023-02-16T13:58:49.114Z,61.20
2023-02-16T14:01:43.250Z,63.10
2023-02-16T14:04:55.448Z,62.50
2023-02-16T14:07:38.044Z,61.20
2023-02-16T14:10:15.783Z,65.80
2023-02-16T14:12:46.754Z,68.20
2023-02-16T14:15:23.039Z,66.60
2023-02-16T14:17:54.071Z,69.10
2023-02-16T14:20:32.680Z,79.80
2023-02-16T14:23:03.646Z,71.40
2023-02-16T14:25:39.084Z,67.00
2023-02-16T14:29:02.400Z,71.20
2023-02-16T14:31:35.027Z,67.40
2023-02-16T14:34:13.833Z,62.50
2023-02-16T14:37:28.101Z,73.10
2023-02-16T14:40:14.439Z,74.30
2023-02-16T14:43:05.072Z,65.90
2023-02-16T14:46:00.048Z,66.40
2023-02-16T14:48:51.774Z,64.90
2023-02-16T14:51:44.362Z,71.70
2023-02-16T14:54:55.290Z,67.40
2023-02-16T14:57:32.588Z,68.90
2023-02-16T15:00:08.606Z,70.70
2023-02-16T15:02:43.292Z,69.30
2023-02-16T15:05:23.303Z,69.90
2023-02-16T15:08:00.446Z,63.50
2023-02-16T15:10:32.386Z,71.70
2023-02-16T15:13:03.575Z,69.20
2023-02-16T15:15:45.178Z,69.70
2023-02-16T15:18:19.768Z,75.50
2023-02-16T15:20:53.214Z,72.00
2023-02-16T15:23:26.561Z,70.00
2023-02-16T15:26:02.817Z,77.40
2023-02-16T15:28:36.020Z,65.20
2023-02-16T15:31:22.324Z,68.90
2023-02-16T15:34:01.063Z,68.50
2023-02-16T15:36:36.978Z,71.70
2023-02-16T15:39:10.644Z,64.10
2023-02-16T15:41:49.739Z,69.40
2023-02-16T15:44:34.444Z,72.40
2023-02-16T15:47:14.529Z,69.60
2023-02-16T15:49:46.795Z,65.30
2023-02-16T15:52:21.805Z,73.20
2023-02-16T15:54:53.076Z,69.10
2023-02-16T15:57:32.236Z,61.30
2023-02-16T16:00:06.256Z,70.00
2023-02-16T16:02:47.608Z,74.90
2023-02-16T16:05:27.517Z,72.70
2023-02-16T16:08:01.742Z,70.20
2023-02-16T16:10:35.836Z,71.50
2023-02-16T16:13:13.547Z,69.80
2023-02-16T16:15:48.753Z,71.30
2023-02-16T16:21:29.875Z,64.40
2023-02-16T16:24:04.704Z,66.00
2023-02-16T16:26:50.864Z,71.10
2023-02-16T16:29:42.180Z,69.60
2023-02-16T16:32:23.105Z,69.70
2023-02-16T16:34:54.414Z,69.50
2023-02-16T16:37:37.119Z,77.80
2023-02-16T16:40:22.121Z,71.60
2023-02-16T16:43:10.645Z,73.10
2023-02-16T16:45:50.891Z,68.10
2023-02-16T16:48:27.028Z,72.30
2023-02-16T16:51:13.353Z,71.30
2023-02-16T16:53:54.872Z,78.40
2023-02-16T16:56:26.887Z,73.90
2023-02-16T16:59:00.256Z,73.80
2023-02-16T17:01:32.371Z,74.70
2023-02-16T17:04:03.577Z,75.90
2023-02-16T17:06:34.561Z,71.20
2023-02-16T17:09:05.951Z,78.90
2023-02-16T17:11:39.207Z,68.00
2023-02-16T17:14:12.207Z,78.60
2023-02-16T17:16:45.637Z,79.70
2023-02-16T17:19:18.430Z,80.40
2023-02-16T17:21:49.847Z,76.40
2023-02-16T17:24:22.124Z,75.30
2023-02-16T17:26:53.092Z,66.00
2023-02-16T17:29:24.061Z,70.50
2023-02-16T17:31:55.259Z,74.80
2023-02-16T17:34:29.586Z,65.40
2023-02-16T17:37:03.065Z,72.60
2023-02-16T17:39:34.169Z,73.40
2023-02-16T17:42:05.498Z,71.60
2023-02-16T17:44:36.621Z,70.30
2023-02-16T17:47:11.208Z,72.80
2023-02-16T17:49:43.229Z,76.80
2023-02-16T17:52:15.137Z,70.60
2023-02-16T17:54:47.316Z,73.70
2023-02-16T17:57:19.450Z,72.10
2023-02-16T17:59:50.412Z,74.40
2023-02-16T18:02:23.679Z,67.10
2023-02-16T18:04:56.672Z,70.60
2023-02-16T18:07:28.027Z,69.70
2023-02-16T18:09:59.264Z,68.70
2023-02-16T18:12:30.701Z,82.20
2023-02-16T18:15:04.171Z,79.30
2023-02-16T18:17:35.093Z,67.20
2023-02-16T18:20:09.378Z,81.10
2023-02-16T18:22:40.557Z,64.20
2023-02-16T18:25:12.296Z,71.50
2023-02-16T18:27:43.330Z,75.00
2023-02-16T18:30:17.002Z,79.70
2023-02-16T18:32:48.119Z,82.60
2023-02-16T18:35:20.495Z,83.60
2023-02-16T18:37:51.725Z,77.60
2023-02-16T18:40:24.040Z,88.30
2023-02-16T18:42:56.911Z,83.10
2023-02-16T18:45:28.159Z,76.00
2023-02-16T18:47:59.492Z,70.80
2023-02-16T18:50:30.682Z,74.60
2023-02-16T18:53:01.876Z,75.00
2023-02-16T18:55:33.935Z,74.90
2023-02-16T18:58:08.226Z,67.30
2023-02-16T19:00:40.556Z,77.10
2023-02-16T19:03:12.074Z,79.30
2023-02-16T19:05:43.881Z,78.10
2023-02-16T19:08:15.397Z,78.80
2023-02-16T19:10:46.530Z,78.90
2023-02-16T19:13:17.486Z,76.90
2023-02-16T19:15:48.489Z,80.10
2023-02-16T19:18:20.465Z,78.70
2023-02-16T19:20:51.625Z,73.20
2023-02-16T19:23:22.778Z,76.50
2023-02-16T19:25:53.780Z,78.70
2023-02-16T19:28:25.261Z,85.20
2023-02-16T19:31:01.208Z,82.00
2023-02-16T19:33:33.076Z,70.40
2023-02-16T19:36:07.283Z,73.40
2023-02-16T19:38:38.848Z,81.40
2023-02-16T19:41:26.637Z,70.50
2023-02-16T19:43:58.196Z,77.60
2023-02-16T19:46:30.257Z,83.90
2023-02-16T19:49:02.024Z,89.40
2023-02-16T19:51:33.836Z,73.40
2023-02-16T19:54:04.871Z,86.60
2023-02-16T19:56:36.453Z,90.00
2023-02-16T19:59:07.744Z,77.10
2023-02-16T20:01:38.930Z,70.60
2023-02-16T20:04:12.824Z,78.50
2023-02-16T20:06:44.795Z,79.20
2023-02-16T20:09:17.976Z,74.70
2023-02-16T20:11:56.653Z,82.30
2023-02-16T20:14:28.252Z,87.30
2023-02-16T20:16:59.915Z,85.30
2023-02-16T20:19:31.165Z,88.50
2023-02-16T20:22:06.269Z,82.90
2023-02-16T20:24:37.779Z,82.60
2023-02-16T20:27:10.248Z,82.50
2023-02-16T20:29:41.419Z,82.80
2023-02-16T20:32:13.287Z,88.30
2023-02-16T20:34:50.410Z,81.40
2023-02-16T20:37:21.921Z,96.50
2023-02-16T20:39:53.897Z,84.50
2023-02-16T20:42:25.201Z,81.90
2023-02-16T20:45:04.457Z,81.50
2023-02-16T20:47:35.991Z,83.90
2023-02-16T20:50:08.463Z,81.90
2023-02-16T20:52:40.590Z,85.00
2023-02-16T20:55:14.882Z,94.40
2023-02-16T20:57:47.010Z,89.90
2023-02-16T21:00:24.314Z,81.60
2023-02-16T21:03:03.229Z,79.60
2023-02-16T21:05:35.800Z,94.10
2023-02-16T21:08:08.203Z,87.20
2023-02-16T21:10:40.123Z,87.20
2023-02-16T21:13:14.398Z,85.10
2023-02-16T21:15:45.863Z,84.70
2023-02-16T21:18:16.984Z,90.70
2023-02-16T21:20:52.074Z,87.50
2023-02-16T21:25:57.943Z,89.80
2023-02-16T21:28:29.725Z,87.70
2023-02-16T21:31:10.104Z,82.40
2023-02-16T21:33:42.827Z,86.70
2023-02-16T21:36:17.770Z,81.50
2023-02-16T21:38:49.517Z,88.40
2023-02-16T21:41:26.259Z,76.50
2023-02-16T21:44:01.977Z,86.40
2023-02-16T21:46:36.328Z,83.70
2023-02-16T21:49:08.857Z,80.40
2023-02-16T21:51:50.072Z,87.60
2023-02-16T21:54:44.796Z,80.50
2023-02-16T21:57:16.304Z,86.20
2023-02-16T21:59:47.907Z,88.80
2023-02-16T22:02:18.966Z,84.70
2023-02-16T22:04:52.665Z,87.00
2023-02-16T22:07:23.588Z,88.90
2023-02-16T22:09:54.602Z,91.20
2023-02-16T22:12:25.588Z,87.90
2023-02-16T22:14:56.590Z,81.70
2023-02-16T22:17:27.714Z,85.60
2023-02-16T22:19:58.749Z,95.60
2023-02-16T22:22:30.591Z,91.40
2023-02-16T22:25:01.524Z,84.30
2023-02-16T22:27:32.478Z,95.80
2023-02-16T22:30:03.555Z,84.40
2023-02-16T22:32:34.658Z,83.00
2023-02-16T22:35:05.839Z,90.00
2023-02-16T22:37:36.842Z,91.50
2023-02-16T22:40:09.120Z,88.40
2023-02-16T22:42:40.039Z,90.10
2023-02-16T22:45:12.346Z,107.10
2023-02-16T22:47:43.572Z,90.00
2023-02-16T22:50:14.712Z,87.30
2023-02-16T22:52:45.646Z,97.50
2023-02-16T22:55:16.666Z,88.90
2023-02-16T22:57:47.600Z,92.20
2023-02-16T23:00:19.515Z,88.00
2023-02-16T23:02:50.423Z,86.10
2023-02-16T23:05:22.798Z,86.60
2023-02-16T23:07:53.707Z,86.30
2023-02-16T23:10:24.681Z,85.90
2023-02-16T23:12:56.116Z,83.50
2023-02-16T23:15:27.349Z,87.70
2023-02-16T23:18:01.932Z,87.10
2023-02-16T23:20:32.915Z,91.10
2023-02-16T23:23:03.868Z,96.50
2023-02-16T23:25:35.435Z,93.60
2023-02-16T23:28:07.297Z,89.10
2023-02-16T23:30:42.787Z,88.80
2023-02-16T23:33:15.488Z,85.70
2023-02-16T23:35:47.480Z,88.80
2023-02-16T23:38:19.162Z,84.00
2023-02-16T23:40:58.554Z,81.60
2023-02-16T23:43:30.045Z,94.70
2023-02-16T23:46:01.789Z,98.90
2023-02-16T23:48:56.785Z,84.90
2023-02-16T23:51:28.748Z,86.10
2023-02-16T23:53:59.939Z,87.30
2023-02-16T23:56:31.919Z,86.40
2023-02-16T23:59:03.494Z,102.20
